Time;durP1;ratioP1;P1;durP2;ratioP2;P2;SDS_P1;SDS_P2;PMS_P1;PMS_P2;Temp;Humidity;BMP_temperature;BMP_pressure;BME280_temperature;BME280_humidity;BME280_pressure;Samples;Min_cycle;Max_cycle;Signal;HPM_P1;HPM_P2
2022/12/05 00:01:23;;;;;;;40.03;24.65;;;;;;;4.13;76.66;101484.97;3578680;40;20060;-63
2022/12/05 00:03:52;;;;;;;44.55;25.25;;;;;;;4.14;76.78;101494.69;3579190;40;21745;-63
2022/12/05 00:06:19;;;;;;;42.88;24.70;;;;;;;4.15;76.78;101491.09;3578524;40;20444;-63
2022/12/05 00:08:46;;;;;;;41.08;24.60;;;;;;;4.13;76.86;101484.97;3578873;40;20064;-64
2022/12/05 00:11:15;;;;;;;42.28;25.35;;;;;;;4.16;76.83;101492.88;3580286;40;20060;-63
2022/12/05 00:13:43;;;;;;;42.67;23.80;;;;;;;4.18;76.87;101493.69;3576031;40;20551;-63
2022/12/05 00:16:14;;;;;;;45.05;24.85;;;;;;;4.12;77.04;101489.41;3577367;40;20450;-64
2022/12/05 00:18:40;;;;;;;41.75;24.67;;;;;;;4.18;76.75;101494.53;3577671;40;20114;-63
2022/12/05 00:21:12;;;;;;;42.13;25.48;;;;;;;4.16;77.10;101496.41;3582022;40;20068;-63
2022/12/05 00:23:38;;;;;;;40.47;24.35;;;;;;;4.19;76.52;101501.66;3580052;40;20060;-63
2022/12/05 00:26:05;;;;;;;43.70;26.00;;;;;;;4.18;77.11;101504.31;3581060;40;20446;-63
2022/12/05 00:28:32;;;;;;;45.35;25.83;;;;;;;4.19;77.52;101500.78;3576719;40;20064;-63
2022/12/05 00:31:13;;;;;;;40.03;24.95;;;;;;;4.18;77.23;101496.34;3576509;40;20336;-63
2022/12/05 00:33:39;;;;;;;44.60;26.45;;;;;;;4.10;77.59;101477.06;3577471;40;20068;-63
2022/12/05 00:36:12;;;;;;;46.88;26.15;;;;;;;4.18;77.65;101488.34;3575047;40;20056;-63
2022/12/05 00:38:38;;;;;;;;;;;;;;;4.16;77.55;101496.41;3582586;40;20067;-63
2022/12/05 00:41:09;;;;;;;44.95;24.92;;;;;;;4.15;77.62;101478.69;3579768;40;19944;-63
2022/12/05 00:43:34;;;;;;;47.22;27.20;;;;;;;4.15;77.58;101489.34;3579883;40;20090;-63
2022/12/05 00:46:08;;;;;;;46.17;27.42;;;;;;;4.16;77.52;101479.56;3580986;40;20057;-64
2022/12/05 00:48:35;;;;;;;45.72;26.52;;;;;;;4.22;77.81;101483.84;3578377;40;20053;-63
2022/12/05 00:51:11;;;;;;;45.95;26.55;;;;;;;4.24;77.72;101488.22;3576926;40;20598;-63
2022/12/05 00:53:37;;;;;;;45.20;27.67;;;;;;;4.25;77.49;101484.66;3578378;40;20096;-64
2022/12/05 00:56:10;;;;;;;45.53;25.67;;;;;;;4.27;77.30;101484.59;3580280;40;20494;-63
2022/12/05 00:58:36;;;;;;;42.03;25.40;;;;;;;4.29;77.27;101485.44;3579142;40;20260;-63
2022/12/05 01:01:11;;;;;;;48.80;27.38;;;;;;;4.03;77.40;101447.06;3580457;40;20056;-63
2022/12/05 01:03:37;;;;;;;44.15;26.02;;;;;;;4.31;77.57;101487.13;3575933;40;20059;-63
2022/12/05 01:06:05;;;;;;;47.13;27.67;;;;;;;4.29;77.19;101493.44;3576901;40;20064;-63
2022/12/05 01:08:32;;;;;;;43.88;26.67;;;;;;;4.30;77.58;101492.50;3576904;40;20048;-63
2022/12/05 01:10:58;;;;;;;43.63;26.65;;;;;;;4.27;77.75;101488.13;3577117;40;20056;-63
2022/12/05 01:13:27;;;;;;;43.50;26.17;;;;;;;4.31;77.27;101499.56;3579905;40;20044;-63
2022/12/05 01:15:53;;;;;;;48.58;27.83;;;;;;;4.31;77.27;101497.78;3577637;40;20057;-63
2022/12/05 01:18:21;;;;;;;42.97;26.40;;;;;;;3.89;77.49;101422.56;3577166;40;20371;-64
2022/12/05 01:20:47;;;;;;;49.17;29.05;;;;;;;4.33;77.19;101503.94;3577049;40;20063;-63
2022/12/05 01:23:14;;;;;;;45.00;26.90;;;;;;;4.36;77.38;101503.88;3579265;40;20052;-63
2022/12/05 01:25:43;;;;;;;45.42;26.65;;;;;;;4.36;77.28;101501.22;3577642;40;20074;-63
2022/12/05 01:28:09;;;;;;;47.60;27.58;;;;;;;4.36;77.53;101511.84;3578992;40;20052;-64
2022/12/05 01:30:45;;;;;;;44.28;27.85;;;;;;;4.33;77.68;101506.59;3579423;40;20057;-63
2022/12/05 01:33:12;;;;;;;46.28;28.00;;;;;;;4.37;77.60;101502.06;3581149;40;20061;-64
2022/12/05 01:35:40;;;;;;;45.08;27.38;;;;;;;4.38;77.81;101506.50;3578064;40;20129;-63
2022/12/05 01:38:07;;;;;;;45.40;27.40;;;;;;;4.37;77.23;101507.41;3575433;40;20045;-63
2022/12/05 01:40:37;;;;;;;49.15;27.15;;;;;;;4.40;78.07;101510.84;3576554;40;20063;-63
2022/12/05 01:43:15;;;;;;;45.65;27.60;;;;;;;4.41;77.68;101517.94;3577877;40;20337;-64
2022/12/05 01:45:44;;;;;;;45.70;27.20;;;;;;;4.42;77.26;101509.03;3578738;40;20122;-63
2022/12/05 01:48:21;;;;;;;45.35;27.13;;;;;;;4.43;77.70;101521.44;3580817;40;20052;-63
2022/12/05 01:50:49;;;;;;;46.33;28.38;;;;;;;4.43;77.38;101521.44;3578862;40;20060;-64
2022/12/05 01:53:17;;;;;;;46.83;28.40;;;;;;;4.16;77.47;101477.78;3581533;40;20326;-63
2022/12/05 01:55:48;;;;;;;45.50;26.83;;;;;;;4.46;77.80;101522.28;3577792;40;20074;-63
2022/12/05 01:58:15;;;;;;;45.35;27.33;;;;;;;4.45;77.30;101524.06;3576121;40;20297;-63
2022/12/05 02:00:41;;;;;;;46.85;27.75;;;;;;;4.45;77.48;101523.19;3574454;40;20067;-63
2022/12/05 02:03:15;;;;;;;47.50;27.40;;;;;;;4.43;77.36;101532.06;3581345;40;20072;-63
2022/12/05 02:05:42;;;;;;;48.10;28.83;;;;;;;4.43;77.54;101526.75;3576630;40;20060;-64
2022/12/05 02:08:10;;;;;;;45.33;27.13;;;;;;;4.41;77.23;101525.94;3579631;40;20377;-63
2022/12/05 02:10:52;;;;;;;46.50;27.17;;;;;;;4.41;77.79;101535.72;3575383;40;20078;-63
2022/12/05 02:14:09;;;;;;;46.08;27.20;;;;;;;4.43;77.39;101537.41;3576854;40;20056;-64
2022/12/05 02:17:15;;;;;;;44.53;26.80;;;;;;;4.42;77.46;101530.34;3572531;40;20041;-63
2022/12/05 02:20:06;;;;;;;46.08;27.65;;;;;;;4.41;77.75;101528.59;3578610;40;20056;-63
2022/12/05 02:23:14;;;;;;;45.75;27.85;;;;;;;4.41;77.81;101528.59;3576231;40;20056;-63
2022/12/05 02:25:53;;;;;;;49.35;26.98;;;;;;;4.42;77.81;101530.34;3579488;40;20422;-62
2022/12/05 02:28:54;;;;;;;45.83;26.90;;;;;;;4.42;77.62;101525.00;3575430;40;20052;-63
2022/12/05 02:31:55;;;;;;;46.53;26.83;;;;;;;4.46;78.03;101519.63;3574526;40;20297;-63
2022/12/05 02:34:47;;;;;;;44.78;26.80;;;;;;;4.45;78.09;101517.88;3577708;40;20064;-63
2022/12/05 02:37:51;;;;;;;44.63;27.52;;;;;;;4.46;77.82;101519.63;3579005;40;20073;-63
2022/12/05 02:40:41;;;;;;;47.92;28.38;;;;;;;4.47;78.00;101514.22;3575488;40;20150;-63
2022/12/05 02:43:26;;;;;;;42.58;26.30;;;;;;;4.49;77.87;101508.88;3577834;40;20121;-63
2022/12/05 02:45:59;;;;;;;46.25;26.95;;;;;;;4.49;77.93;101516.88;3577725;40;20125;-64
2022/12/05 02:48:28;;;;;;;47.30;27.88;;;;;;;4.47;77.90;101516.91;3578188;40;20153;-64
2022/12/05 02:50:59;;;;;;;41.92;26.02;;;;;;;4.49;78.38;101516.88;3574704;40;20049;-64
2022/12/05 02:53:30;;;;;;;47.22;28.10;;;;;;;4.50;78.30;101521.28;3578039;40;20053;-63
2022/12/05 02:55:57;;;;;;;48.20;28.25;;;;;;;4.53;78.40;101526.53;3575030;40;20395;-64
2022/12/05 02:58:53;;;;;;;52.28;28.35;;;;;;;4.50;78.30;101519.47;3576068;40;20381;-64
2022/12/05 03:01:27;;;;;;;47.17;28.13;;;;;;;4.48;78.00;101524.00;3577335;40;20056;-63
2022/12/05 03:03:58;;;;;;;42.30;26.42;;;;;;;4.46;78.61;101525.81;3579960;40;20045;-64
2022/12/05 03:06:35;;;;;;;47.28;28.40;;;;;;;4.48;78.57;101531.09;3579097;40;20055;-63
2022/12/05 03:09:19;;;;;;;46.78;28.40;;;;;;;4.47;78.77;101522.22;3573737;40;20065;-63
2022/12/05 03:12:12;;;;;;;44.35;27.35;;;;;;;4.50;78.66;101526.59;3578276;40;20064;-63
2022/12/05 03:14:49;;;;;;;43.78;26.38;;;;;;;4.35;78.86;101503.94;3573400;40;20129;-64
2022/12/05 03:17:27;;;;;;;43.33;26.67;;;;;;;4.49;78.13;101517.75;3579243;40;20058;-64
2022/12/05 03:20:30;;;;;;;50.03;29.60;;;;;;;4.51;78.11;101523.03;3580305;40;20114;-64
2022/12/05 03:23:08;;;;;;;48.28;27.08;;;;;;;4.51;78.54;101523.91;3555908;40;20395;-64
2022/12/05 03:25:51;;;;;;;45.72;26.92;;;;;;;4.53;78.68;101521.19;3574647;40;20482;-64
2022/12/05 03:28:47;;;;;;;50.65;28.25;;;;;;;4.24;78.57;101466.91;3579682;40;20056;-64
2022/12/05 03:31:23;;;;;;;45.92;27.40;;;;;;;4.56;78.34;101521.13;3577067;40;20390;-64
2022/12/05 03:33:57;;;;;;;49.35;28.10;;;;;;;4.56;78.59;101513.13;3577774;40;20466;-64
2022/12/05 03:36:39;;;;;;;48.50;29.05;;;;;;;4.49;78.31;101508.88;3578913;40;20083;-63
2022/12/05 03:39:21;;;;;;;49.75;27.13;;;;;;;4.56;78.59;101523.78;3574812;40;20130;-63
2022/12/05 03:42:12;;;;;;;48.15;27.73;;;;;;;4.56;78.44;101516.66;3576508;40;20049;-64
2022/12/05 03:44:51;;;;;;;43.13;25.88;;;;;;;4.03;78.40;101433.75;3578436;40;20101;-63
2022/12/05 03:47:37;;;;;;;50.30;28.30;;;;;;;4.57;78.72;101517.56;3577414;40;20054;-64
2022/12/05 03:50:26;;;;;;;48.03;28.17;;;;;;;4.54;78.36;101514.97;3576942;40;20075;-64
2022/12/05 03:53:06;;;;;;;46.65;26.67;;;;;;;4.52;78.60;101514.13;3580139;40;20141;-63
2022/12/05 03:55:40;;;;;;;46.08;26.42;;;;;;;4.51;78.76;101520.38;3574618;40;21716;-64
2022/12/05 03:58:25;;;;;;;43.55;26.50;;;;;;;4.50;79.02;101515.94;3576213;40;20063;-63
2022/12/05 04:00:56;;;;;;;46.63;27.35;;;;;;;4.55;78.99;101522.03;3577712;40;20379;-64
2022/12/05 04:03:48;;;;;;;48.72;27.58;;;;;;;4.57;78.81;101525.56;3575046;40;20060;-64
2022/12/05 04:06:30;;;;;;;45.50;28.52;;;;;;;4.58;78.80;101524.63;3577570;40;20052;-64
2022/12/05 04:09:08;;;;;;;44.55;27.08;;;;;;;4.58;78.93;101525.50;3578409;40;20403;-64
2022/12/05 04:11:42;;;;;;;46.42;27.05;;;;;;;4.30;78.70;101477.41;3578289;40;20055;-64
2022/12/05 04:14:15;;;;;;;45.33;27.35;;;;;;;4.54;78.48;101528.28;3575226;40;20041;-64
2022/12/05 04:17:16;;;;;;;44.83;27.75;;;;;;;4.53;79.19;101523.84;3574033;40;20070;-64
2022/12/05 04:22:38;;;;;;;45.08;25.80;;;;;;;4.54;78.66;101534.50;3576127;40;20108;-63
2022/12/05 04:28:40;;;;;;;47.45;27.10;;;;;;;4.56;78.90;101531.78;3581598;40;20408;-64
2022/12/05 04:31:16;;;;;;;42.17;26.33;;;;;;;4.55;78.99;101535.34;3576998;40;20071;-63
2022/12/05 04:33:53;;;;;;;46.10;26.13;;;;;;;4.53;79.30;101538.03;3575907;40;20068;-64
2022/12/05 04:36:32;;;;;;;45.63;26.05;;;;;;;4.55;79.23;101544.22;3575751;40;20102;-64
2022/12/05 04:39:09;;;;;;;45.33;26.38;;;;;;;4.56;79.67;101532.63;3575926;40;20145;-64
2022/12/05 04:41:54;;;;;;;47.80;27.20;;;;;;;4.57;79.31;101534.41;3576330;40;20059;-64
2022/12/05 04:44:30;;;;;;;43.47;26.30;;;;;;;4.56;78.99;101543.28;3578786;40;20052;-64
2022/12/05 04:47:04;;;;;;;43.33;25.95;;;;;;;4.56;79.79;101542.41;3577835;40;20108;-64
2022/12/05 04:49:34;;;;;;;44.88;26.42;;;;;;;4.31;79.49;101500.44;3574290;40;20052;-64
2022/12/05 04:52:07;;;;;;;43.13;26.70;;;;;;;4.57;79.79;101536.22;3578127;40;20052;-63
2022/12/05 04:54:51;;;;;;;44.28;25.58;;;;;;;4.58;79.86;101537.94;3577247;40;20052;-63
2022/12/05 04:57:27;;;;;;;45.00;26.70;;;;;;;4.58;79.88;101536.16;3577167;40;20056;-62
2022/12/05 04:59:54;;;;;;;42.63;26.52;;;;;;;4.59;80.01;101537.03;3578681;40;20060;-62
2022/12/05 05:03:15;;;;;;;42.40;26.02;;;;;;;4.58;80.26;101540.59;3577087;40;20052;-62
2022/12/05 05:05:50;;;;;;;46.08;27.20;;;;;;;4.57;79.84;101536.22;3558587;40;20074;-62
2022/12/05 05:08:20;;;;;;;45.55;27.08;;;;;;;4.57;80.55;101541.53;3575234;40;20064;-62
2022/12/05 05:11:10;;;;;;;43.88;27.42;;;;;;;4.58;80.86;101541.47;3578842;40;20486;-62
2022/12/05 05:13:36;;;;;;;44.92;25.98;;;;;;;4.61;80.74;101546.72;3576153;40;20788;-62
2022/12/05 05:16:02;;;;;;;50.97;28.25;;;;;;;4.62;80.87;101542.25;3575715;40;20071;-63
2022/12/05 05:18:28;;;;;;;48.05;28.35;;;;;;;4.62;80.87;101551.13;3577131;40;20056;-62
2022/12/05 05:20:53;;;;;;;50.50;28.67;;;;;;;4.65;81.03;101553.72;3578239;40;20598;-63
2022/12/05 05:23:19;;;;;;;50.22;28.55;;;;;;;4.62;81.20;101548.47;3580875;40;20280;-62
2022/12/05 05:25:44;;;;;;;50.53;30.52;;;;;;;4.40;81.00;101510.84;3581121;40;20059;-62
2022/12/05 05:28:10;;;;;;;47.95;28.67;;;;;;;4.66;81.18;101554.56;3579368;40;20068;-62
2022/12/05 05:30:36;;;;;;;47.67;27.98;;;;;;;4.66;81.14;101551.91;3575423;40;20065;-62
2022/12/05 05:33:01;;;;;;;47.65;28.33;;;;;;;4.64;80.68;101556.44;3578484;40;20056;-63
2022/12/05 05:35:27;;;;;;;48.38;28.15;;;;;;;4.63;81.13;101552.00;3579090;40;20052;-62
2022/12/05 05:37:53;;;;;;;44.22;27.80;;;;;;;4.60;81.07;101550.31;3577693;40;20087;-62
2022/12/05 05:40:19;;;;;;;53.50;30.50;;;;;;;4.65;81.27;101553.72;3580983;40;20103;-63
2022/12/05 05:42:48;;;;;;;49.20;28.13;;;;;;;4.67;80.99;101550.16;3579340;40;20052;-62
2022/12/05 05:45:15;;;;;;;45.83;28.17;;;;;;;4.40;81.09;101504.66;3577737;40;20185;-63
2022/12/05 05:47:42;;;;;;;44.50;26.30;;;;;;;4.69;81.50;101549.19;3579747;40;20064;-62
2022/12/05 05:50:08;;;;;;;48.13;26.40;;;;;;;4.70;81.36;101556.28;3579468;40;20280;-62
2022/12/05 05:52:36;;;;;;;46.22;26.95;;;;;;;4.69;81.30;101556.28;3581308;40;20059;-62
2022/12/05 05:55:05;;;;;;;47.10;26.08;;;;;;;4.68;80.99;101552.75;3576834;40;20118;-62
2022/12/05 05:57:31;;;;;;;44.78;27.55;;;;;;;4.61;81.83;101543.19;3581557;40;20055;-62
2022/12/05 05:59:56;;;;;;;46.92;27.38;;;;;;;4.73;81.74;101558.84;3580594;40;20056;-63
2022/12/05 06:02:22;;;;;;;47.83;26.92;;;;;;;4.42;80.76;101509.03;3577601;40;20074;-63
2022/12/05 06:04:48;;;;;;;48.78;27.40;;;;;;;4.75;81.21;101559.66;3578251;40;20425;-63
2022/12/05 06:07:13;;;;;;;45.67;27.17;;;;;;;4.76;81.24;101561.44;3578494;40;20060;-63
2022/12/05 06:09:39;;;;;;;39.75;24.25;;;;;;;4.76;81.07;101566.78;3580713;40;20579;-62
2022/12/05 06:12:05;;;;;;;46.25;26.42;;;;;;;4.77;81.44;101571.16;3576901;40;20159;-62
2022/12/05 06:14:30;;;;;;;42.13;25.30;;;;;;;4.79;81.17;101564.03;3580708;40;20401;-62
2022/12/05 06:16:56;;;;;;;40.90;26.05;;;;;;;4.79;81.10;101574.69;3583257;40;20040;-63
2022/12/05 06:19:22;;;;;;;42.47;25.45;;;;;;;4.82;81.26;101565.72;3577941;40;20055;-62
2022/12/05 06:21:49;;;;;;;45.17;26.58;;;;;;;4.81;81.24;101563.97;3578165;40;20292;-62
2022/12/05 06:24:16;;;;;;;43.05;25.92;;;;;;;4.80;80.86;101568.44;3579067;40;20309;-62
2022/12/05 06:26:42;;;;;;;47.33;26.67;;;;;;;4.82;81.55;101571.94;3579580;40;20075;-62
2022/12/05 06:29:08;;;;;;;43.15;24.95;;;;;;;4.60;81.25;101538.78;3578114;40;20182;-63
2022/12/05 06:31:34;;;;;;;44.75;26.17;;;;;;;4.73;81.45;101566.84;3580048;40;20056;-62
2022/12/05 06:34:02;;;;;;;41.15;26.17;;;;;;;4.80;81.30;101573.75;3578382;40;20056;-66
2022/12/05 06:36:29;;;;;;;43.63;26.92;;;;;;;4.79;81.89;101565.78;3579411;40;20063;-62
2022/12/05 06:38:56;;;;;;;41.72;25.55;;;;;;;4.83;81.61;101571.00;3579790;40;20084;-62
2022/12/05 06:41:23;;;;;;;41.22;25.98;;;;;;;4.80;81.55;101568.44;3579553;40;20096;-62
2022/12/05 06:43:53;;;;;;;43.65;26.60;;;;;;;4.85;81.38;101574.53;3577493;40;20055;-62
2022/12/05 06:46:20;;;;;;;45.65;26.80;;;;;;;4.85;81.38;101574.53;3579129;40;20067;-62
2022/12/05 06:48:46;;;;;;;43.30;25.60;;;;;;;4.90;81.49;101579.72;3580423;40;20361;-62
2022/12/05 06:51:15;;;;;;;40.90;25.25;;;;;;;4.88;81.47;101578.88;3578639;40;20053;-62
2022/12/05 06:53:43;;;;;;;43.60;26.92;;;;;;;4.75;81.46;101556.13;3580602;40;20125;-62
2022/12/05 06:56:17;;;;;;;44.20;26.50;;;;;;;4.85;81.31;101585.19;3577838;40;20067;-62
2022/12/05 06:58:48;;;;;;;45.55;25.55;;;;;;;4.85;81.61;101578.94;3579851;40;20397;-62
2022/12/05 07:01:40;;;;;;;43.83;26.42;;;;;;;4.87;81.69;101591.31;3579549;40;20086;-62
2022/12/05 07:04:21;;;;;;;40.17;24.55;;;;;;;4.87;81.58;101583.31;3579169;40;20318;-62
2022/12/05 07:06:49;;;;;;;45.15;25.30;;;;;;;4.81;81.45;101580.81;3578890;40;20075;-62
2022/12/05 07:09:44;;;;;;;42.38;25.45;;;;;;;4.92;81.37;101590.34;3566342;40;20053;-62
2022/12/05 07:12:14;;;;;;;37.45;25.20;;;;;;;4.92;81.19;101593.00;3577085;40;20049;-62
2022/12/05 07:14:40;;;;;;;37.65;23.55;;;;;;;4.93;81.66;101597.41;3578703;40;20117;-62
2022/12/05 07:17:06;;;;;;;37.90;23.70;;;;;;;4.95;81.72;101603.56;3579868;40;20390;-62
2022/12/05 07:19:31;;;;;;;40.65;24.80;;;;;;;4.91;81.62;101593.91;3578806;40;20044;-62
2022/12/05 07:21:57;;;;;;;41.33;24.88;;;;;;;4.97;81.52;101609.72;3577268;40;20088;-62
2022/12/05 07:24:22;;;;;;;39.00;23.50;;;;;;;4.91;81.65;101604.56;3578229;40;20060;-62
2022/12/05 07:26:48;;;;;;;40.13;24.27;;;;;;;4.99;81.32;101615.91;3568101;40;20063;-62
2022/12/05 07:29:14;;;;;;;39.58;23.10;;;;;;;5.00;81.32;101620.31;3576513;40;20067;-62
2022/12/05 07:31:39;;;;;;;34.28;22.25;;;;;;;4.91;81.71;101612.56;3579940;40;20059;-62
2022/12/05 07:34:05;;;;;;;38.35;23.30;;;;;;;4.99;81.42;101627.44;3577100;40;20068;-62
2022/12/05 07:36:31;;;;;;;36.75;24.08;;;;;;;4.99;81.77;101626.56;3579044;40;20063;-62
2022/12/05 07:38:57;;;;;;;42.65;24.13;;;;;;;5.02;81.43;101630.03;3578215;40;20048;-62
2022/12/05 07:41:28;;;;;;;38.28;23.35;;;;;;;5.04;81.35;101629.97;3565763;40;20080;-62
2022/12/05 07:43:57;;;;;;;40.72;23.08;;;;;;;5.04;81.70;101621.97;3578243;40;20057;-62
2022/12/05 07:46:24;;;;;;;38.38;23.77;;;;;;;4.86;81.41;101589.59;3576992;40;20106;-62
2022/12/05 07:48:50;;;;;;;34.88;21.42;;;;;;;5.03;81.49;101622.91;3579321;40;20056;-62
2022/12/05 07:51:18;;;;;;;36.63;22.98;;;;;;;5.03;81.49;101621.09;3567994;40;20468;-61
2022/12/05 07:53:44;;;;;;;37.03;22.63;;;;;;;4.98;81.56;101614.13;3579033;40;20392;-62
2022/12/05 07:56:15;;;;;;;37.10;22.65;;;;;;;4.72;81.78;101567.75;3576706;40;20356;-62
2022/12/05 07:58:43;;;;;;;34.88;22.58;;;;;;;4.70;81.43;101566.94;3581196;40;20133;-61
2022/12/05 08:01:12;;;;;;;34.92;21.88;;;;;;;5.06;81.35;101638.81;3578461;40;20059;-61
2022/12/05 08:03:38;;;;;;;35.95;22.38;;;;;;;5.07;81.33;101629.88;3578056;40;20052;-62
2022/12/05 08:06:09;;;;;;;39.25;23.45;;;;;;;5.05;81.28;101634.41;3579723;40;20074;-62
2022/12/05 08:08:36;;;;;;;34.38;21.67;;;;;;;4.76;81.85;101581.88;3579871;40;20307;-62
2022/12/05 08:11:05;;;;;;;31.98;20.75;;;;;;;5.06;81.46;101636.13;3577234;40;20056;-61
2022/12/05 08:13:32;;;;;;;36.30;23.55;;;;;;;5.07;81.94;101646.78;3578608;40;20060;-61
2022/12/05 08:16:04;;;;;;;39.38;22.83;;;;;;;5.08;81.43;101647.66;3576129;40;20061;-61
2022/12/05 08:18:30;;;;;;;32.58;22.00;;;;;;;4.97;82.03;101636.38;3578018;40;20052;-61
2022/12/05 08:21:02;;;;;;;32.80;21.85;;;;;;;5.05;81.59;101658.38;3577775;40;20310;-61
2022/12/05 08:23:30;;;;;;;33.10;21.38;;;;;;;4.77;82.04;101608.47;3580169;40;20044;-62
2022/12/05 08:26:03;;;;;;;34.17;21.98;;;;;;;5.02;81.72;101650.47;3577977;40;20167;-61
2022/12/05 08:28:30;;;;;;;32.45;20.85;;;;;;;4.93;82.16;101654.22;3581044;40;20125;-62
2022/12/05 08:30:55;;;;;;;30.98;21.05;;;;;;;5.03;81.88;101665.53;3577944;40;20060;-62
2022/12/05 08:33:21;;;;;;;35.63;22.80;;;;;;;5.02;82.03;101670.00;3578062;40;20059;-62
2022/12/05 08:35:47;;;;;;;35.78;22.15;;;;;;;5.04;81.90;101667.28;3579085;40;20056;-63
2022/12/05 08:38:12;;;;;;;38.25;23.65;;;;;;;5.06;82.07;101668.13;3579458;40;20083;-63
2022/12/05 08:40:38;;;;;;;34.17;21.70;;;;;;;5.02;82.77;101661.13;3579884;40;20061;-63
2022/12/05 08:43:03;;;;;;;33.67;22.17;;;;;;;5.07;82.36;101672.53;3578412;40;20390;-63
2022/12/05 08:45:29;;;;;;;34.83;22.58;;;;;;;5.07;81.93;101669.84;3578385;40;20056;-63
2022/12/05 08:47:55;;;;;;;33.67;21.30;;;;;;;5.08;82.40;101674.28;3579697;40;20314;-63
2022/12/05 08:50:20;;;;;;;35.95;22.17;;;;;;;5.10;82.08;101659.13;3582203;40;20047;-62
2022/12/05 08:52:46;;;;;;;36.05;21.83;;;;;;;5.08;82.38;101660.97;3579570;40;20106;-62
2022/12/05 08:55:11;;;;;;;35.08;21.55;;;;;;;5.13;82.52;101672.38;3579633;40;20060;-63
2022/12/05 08:57:37;;;;;;;33.63;21.85;;;;;;;5.11;82.56;101666.22;3580481;40;20059;-63
2022/12/05 09:00:04;;;;;;;34.15;21.35;;;;;;;5.12;82.53;101671.50;3578823;40;20350;-63
2022/12/05 09:02:30;;;;;;;34.35;22.13;;;;;;;5.18;83.13;101675.81;3579247;40;20148;-63
2022/12/05 09:04:56;;;;;;;34.20;21.38;;;;;;;5.20;82.82;101684.66;3576514;40;20479;-63
2022/12/05 09:07:21;;;;;;;37.95;22.83;;;;;;;5.21;82.57;101683.72;3581192;40;20059;-63
2022/12/05 09:09:47;;;;;;;33.38;21.58;;;;;;;5.20;82.42;101676.66;3578126;40;20059;-63
2022/12/05 09:12:13;;;;;;;35.83;22.33;;;;;;;5.04;82.75;101651.28;3579658;40;20056;-63
2022/12/05 09:14:39;;;;;;;34.28;21.60;;;;;;;5.20;82.85;101681.97;3578987;40;20056;-64
2022/12/05 09:17:05;;;;;;;33.17;21.83;;;;;;;5.21;82.85;101697.06;3580981;40;20728;-63
2022/12/05 09:19:31;;;;;;;32.35;21.23;;;;;;;4.91;82.29;101640.06;3581099;40;20625;-63
2022/12/05 09:21:57;;;;;;;36.88;23.00;;;;;;;5.24;82.29;101694.31;3578871;40;20104;-64
2022/12/05 09:24:24;;;;;;;34.78;20.90;;;;;;;5.18;82.27;101686.47;3580541;40;20052;-63
2022/12/05 09:26:49;;;;;;;33.53;21.05;;;;;;;5.22;82.80;101690.78;3582689;40;20060;-64
2022/12/05 09:29:16;;;;;;;33.10;21.02;;;;;;;5.26;82.48;101700.44;3575823;40;20045;-63
2022/12/05 09:31:41;;;;;;;32.95;21.45;;;;;;;5.29;82.34;101705.72;3579343;40;20121;-63
2022/12/05 09:34:08;;;;;;;31.17;21.20;;;;;;;5.32;82.50;101712.75;3579377;40;20061;-62
2022/12/05 09:36:34;;;;;;;30.83;21.05;;;;;;;5.33;82.40;101710.06;3580349;40;20048;-61
2022/12/05 09:39:05;;;;;;;32.90;21.45;;;;;;;5.35;82.37;101700.22;3577125;40;20059;-60
2022/12/05 09:42:04;;;;;;;32.47;21.17;;;;;;;5.34;81.98;101711.81;3579428;40;20139;-61
2022/12/05 09:44:54;;;;;;;29.13;19.30;;;;;;;5.34;82.07;101709.13;3577792;40;20307;-62
2022/12/05 09:47:35;;;;;;;28.70;18.88;;;;;;;5.36;81.93;101711.78;3577985;40;20068;-63
2022/12/05 09:50:28;;;;;;;30.40;18.23;;;;;;;5.36;81.84;101711.78;3577047;40;20091;-63
2022/12/05 09:53:17;;;;;;;27.83;19.35;;;;;;;5.36;81.80;101711.78;3575634;40;20478;-62
2022/12/05 09:56:24;;;;;;;30.83;20.25;;;;;;;5.33;81.93;101715.41;3575709;40;20096;-61
2022/12/05 09:58:53;;;;;;;30.23;20.02;;;;;;;5.33;81.83;101712.72;3578988;40;20060;-62
2022/12/05 10:01:31;;;;;;;27.98;18.30;;;;;;;5.38;81.78;101717.06;3579020;40;20068;-62
2022/12/05 10:04:33;;;;;;;29.73;19.25;;;;;;;5.35;81.35;101710.00;3577491;40;20112;-62
2022/12/05 10:07:28;;;;;;;27.00;17.27;;;;;;;5.38;81.44;101715.25;3576987;40;20310;-63
2022/12/05 10:10:22;;;;;;;27.95;17.38;;;;;;;5.40;80.94;101717.91;3568008;40;20121;-63
2022/12/05 10:13:45;;;;;;;25.65;17.00;;;;;;;5.41;80.82;101716.97;3575924;40;20809;-62
2022/12/05 10:16:31;;;;;;;27.45;17.40;;;;;;;5.42;80.80;101711.59;3535669;40;20124;-63
2022/12/05 10:19:16;;;;;;;25.65;16.50;;;;;;;5.44;80.55;101720.44;3535930;40;20546;-62
2022/12/05 10:22:00;;;;;;;21.35;14.75;;;;;;;5.45;80.86;101710.66;3565353;40;20060;-62
2022/12/05 10:24:40;;;;;;;24.95;15.27;;;;;;;5.42;80.56;101706.25;3577435;40;20071;-62
2022/12/05 10:27:13;;;;;;;20.27;14.43;;;;;;;5.45;80.50;101713.31;3574962;40;20118;-63
2022/12/05 10:30:15;;;;;;;24.60;15.07;;;;;;;5.47;80.05;101722.16;3578982;40;20088;-63
2022/12/05 10:32:57;;;;;;;18.10;14.00;;;;;;;5.45;80.07;101715.97;3568764;40;20062;-63
2022/12/05 10:35:32;;;;;;;22.45;14.80;;;;;;;5.43;79.58;101723.16;3578130;40;20056;-63
2022/12/05 10:38:13;;;;;;;22.35;14.52;;;;;;;5.44;79.85;101719.56;3578824;40;20062;-64
2022/12/05 10:40:49;;;;;;;22.23;13.93;;;;;;;5.43;79.69;101721.38;3578727;40;20064;-64
2022/12/05 10:43:30;;;;;;;20.58;14.27;;;;;;;5.42;79.94;101718.72;3579510;40;20059;-63
2022/12/05 10:45:56;;;;;;;21.65;14.20;;;;;;;5.44;80.24;101714.25;3575765;40;20048;-61
2022/12/05 10:48:24;;;;;;;22.80;14.68;;;;;;;5.47;80.70;101720.34;3577434;40;20048;-60
2022/12/05 10:50:57;;;;;;;22.50;14.77;;;;;;;5.52;80.34;101717.59;3576375;40;20051;-62
2022/12/05 10:53:49;;;;;;;20.67;12.85;;;;;;;5.49;80.44;101713.22;3575233;40;20057;-62
2022/12/05 10:56:46;;;;;;;22.95;14.52;;;;;;;5.50;79.98;101714.94;3576635;40;20044;-62
2022/12/05 10:59:19;;;;;;;18.60;12.88;;;;;;;5.52;79.91;101728.25;3579678;40;20375;-62
2022/12/05 11:01:56;;;;;;;17.77;12.75;;;;;;;5.51;79.84;101715.81;3576987;40;20406;-62
2022/12/05 11:04:42;;;;;;;18.52;12.98;;;;;;;5.53;80.44;101720.19;3576734;40;20056;-63
2022/12/05 11:07:29;;;;;;;21.45;13.55;;;;;;;5.56;80.58;101713.91;3577170;40;20119;-61
2022/12/05 11:09:59;;;;;;;18.83;12.90;;;;;;;5.54;80.40;101697.94;3576722;40;20092;-63
2022/12/05 11:12:35;;;;;;;21.27;13.57;;;;;;;5.55;80.05;101709.47;3577524;40;20060;-63
2022/12/05 11:15:21;;;;;;;20.50;14.00;;;;;;;5.48;79.90;101699.91;3576872;40;20663;-63
2022/12/05 11:17:50;;;;;;;18.00;12.88;;;;;;;5.53;80.08;101704.19;3576810;40;20520;-62
2022/12/05 11:20:18;;;;;;;18.08;12.88;;;;;;;5.56;79.99;101708.59;3578612;40;20064;-63
2022/12/05 11:22:53;;;;;;;19.25;12.63;;;;;;;5.36;79.77;101671.78;3578344;40;20479;-62
2022/12/05 11:25:29;;;;;;;19.48;13.00;;;;;;;5.62;79.86;101702.22;3576770;40;20064;-62
2022/12/05 11:27:58;;;;;;;19.33;13.70;;;;;;;5.65;79.32;101703.00;3578434;40;20048;-62
2022/12/05 11:30:28;;;;;;;18.92;13.50;;;;;;;5.63;78.78;101702.16;3579174;40;20123;-62
2022/12/05 11:33:23;;;;;;;20.08;13.48;;;;;;;5.63;79.40;101703.94;3578734;40;20469;-62
2022/12/05 11:35:54;;;;;;;20.15;12.90;;;;;;;5.63;79.72;101698.63;3576835;40;20059;-62
2022/12/05 11:38:27;;;;;;;17.92;12.70;;;;;;;5.51;79.79;101675.81;3578833;40;20054;-62
2022/12/05 11:41:21;;;;;;;16.30;11.50;;;;;;;5.68;79.96;101697.59;3575034;40;20060;-63
2022/12/05 11:44:27;;;;;;;16.90;11.30;;;;;;;5.69;79.29;101693.13;3576961;40;20057;-63
2022/12/05 11:47:58;;;;;;;14.68;10.90;;;;;;;5.63;79.21;101693.28;3574361;40;20057;-64
2022/12/05 11:51:01;;;;;;;13.60;10.32;;;;;;;5.64;78.97;101701.22;3555627;40;20059;-64
2022/12/05 11:53:50;;;;;;;14.10;10.60;;;;;;;5.65;78.58;101699.47;3576619;40;20564;-64
2022/12/05 11:56:37;;;;;;;16.08;10.98;;;;;;;5.64;79.34;101700.34;3577180;40;20079;-64